createdAt,value
2023-02-24T00:04:31.303Z,7.87
2023-02-24T00:09:33.328Z,7.79
2023-02-24T00:14:36.729Z,7.85
2023-02-24T00:19:39.134Z,7.85
2023-02-24T00:24:40.139Z,7.82
2023-02-24T00:29:42.049Z,7.92
2023-02-24T00:34:44.341Z,7.98
2023-02-24T00:39:45.008Z,7.97
2023-02-24T00:44:47.136Z,7.95
2023-02-24T00:49:50.391Z,7.83
2023-02-24T00:54:51.173Z,7.88
2023-02-24T00:59:52.624Z,7.91
2023-02-24T01:04:54.739Z,7.83
2023-02-24T01:09:55.383Z,7.78
2023-02-24T01:14:57.012Z,7.69
2023-02-24T01:20:00.891Z,7.69
2023-02-24T01:25:01.561Z,7.66
2023-02-24T01:30:02.230Z,7.64
2023-02-24T01:35:05.946Z,7.59
2023-02-24T01:40:18.478Z,7.53
2023-02-24T01:45:23.171Z,7.46
2023-02-24T01:50:26.749Z,7.39
2023-02-24T01:55:32.540Z,7.42
2023-02-24T02:00:45.201Z,7.37
2023-02-24T02:05:48.680Z,7.30
2023-02-24T02:10:49.451Z,7.30
2023-02-24T02:16:02.304Z,7.23
2023-02-24T02:21:33.147Z,7.26
2023-02-24T02:26:58.817Z,7.24
2023-02-24T02:32:31.804Z,7.18
2023-02-24T02:37:43.519Z,7.18
2023-02-24T02:42:48.207Z,7.21
2023-02-24T02:47:53.984Z,7.18
2023-02-24T02:52:59.237Z,7.14
2023-02-24T02:58:04.439Z,7.06
2023-02-24T03:03:12.655Z,6.96
2023-02-24T03:08:22.974Z,6.87
2023-02-24T03:13:28.105Z,6.89
2023-02-24T03:18:32.943Z,6.84
2023-02-24T03:23:38.808Z,6.78
2023-02-24T03:28:45.626Z,6.66
2023-02-24T03:33:54.090Z,6.49
2023-02-24T03:38:58.304Z,6.34
2023-02-24T03:44:03.708Z,6.20
2023-02-24T03:49:12.370Z,5.95
2023-02-24T03:54:30.620Z,5.91
2023-02-24T03:59:42.858Z,5.94
2023-02-24T04:04:49.169Z,5.92
2023-02-24T04:10:06.600Z,5.84
2023-02-24T04:15:13.432Z,5.87
2023-02-24T04:20:22.028Z,5.78
2023-02-24T04:25:32.569Z,5.78
2023-02-24T04:30:37.224Z,5.74
2023-02-24T04:35:40.477Z,5.72
2023-02-24T04:40:43.345Z,5.72
2023-02-24T04:45:44.261Z,5.76
2023-02-24T04:50:45.347Z,5.78
2023-02-24T04:55:49.243Z,5.87
2023-02-24T05:00:53.208Z,5.89
2023-02-24T05:05:56.917Z,5.89
2023-02-24T05:11:00.948Z,5.91
2023-02-24T05:16:07.472Z,5.88
2023-02-24T05:21:28.311Z,5.92
2023-02-24T05:26:32.138Z,5.95
2023-02-24T05:31:32.899Z,5.98
2023-02-24T05:36:40.206Z,5.92
2023-02-24T05:41:43.658Z,5.95
2023-02-24T05:46:46.521Z,5.64
2023-02-24T05:51:54.797Z,5.47
2023-02-24T05:57:00.171Z,5.31
2023-02-24T06:02:06.923Z,5.06
2023-02-24T06:07:13.707Z,4.96
2023-02-24T06:12:15.874Z,4.92
2023-02-24T06:17:18.694Z,4.91
2023-02-24T06:22:23.018Z,4.67
2023-02-24T06:27:25.651Z,4.50
2023-02-24T06:32:27.337Z,4.37
2023-02-24T06:37:28.331Z,4.40
2023-02-24T06:42:30.328Z,4.35
2023-02-24T06:47:32.644Z,4.12
2023-02-24T06:52:34.331Z,3.90
2023-02-24T06:57:36.478Z,3.82
2023-02-24T07:02:39.617Z,3.86
2023-02-24T07:07:45.945Z,3.75
2023-02-24T07:12:48.066Z,3.77
2023-02-24T07:17:50.751Z,3.86
2023-02-24T07:22:51.377Z,3.89
2023-02-24T07:27:54.463Z,3.84
2023-02-24T07:32:55.580Z,3.77
2023-02-24T07:38:05.123Z,3.62
2023-02-24T07:43:07.129Z,3.47
2023-02-24T07:48:07.894Z,3.43
2023-02-24T07:53:09.995Z,3.30
2023-02-24T07:58:12.017Z,3.11
2023-02-24T08:03:13.565Z,3.15
2023-02-24T08:08:20.938Z,3.10
2023-02-24T08:13:23.009Z,3.19
2023-02-24T08:18:24.790Z,2.96
2023-02-24T08:23:25.727Z,3.02
2023-02-24T08:28:28.373Z,3.03
2023-02-24T08:33:30.212Z,3.16
2023-02-24T08:38:41.881Z,3.04
2023-02-24T08:43:46.404Z,3.00
2023-02-24T08:48:49.072Z,3.25
2023-02-24T08:53:53.209Z,3.13
2023-02-24T08:58:58.217Z,3.23
2023-02-24T09:04:00.432Z,3.25
2023-02-24T09:09:20.932Z,3.50
2023-02-24T09:14:28.583Z,3.55
2023-02-24T09:19:48.784Z,3.95
2023-02-24T09:24:51.234Z,4.00
2023-02-24T09:29:53.410Z,3.63
2023-02-24T09:34:54.065Z,3.83
2023-02-24T09:40:15.405Z,3.83
2023-02-24T09:45:33.007Z,3.65
2023-02-24T09:51:03.263Z,3.87
2023-02-24T09:56:16.209Z,4.01
2023-02-24T10:01:33.334Z,4.46
2023-02-24T10:06:40.696Z,4.77
2023-02-24T10:11:53.531Z,5.13
2023-02-24T10:17:16.152Z,5.52
2023-02-24T10:22:29.490Z,5.62
2023-02-24T10:27:39.535Z,6.06
2023-02-24T10:32:49.085Z,6.34
2023-02-24T10:37:50.195Z,5.91
2023-02-24T10:42:55.029Z,5.87
2023-02-24T10:47:59.171Z,6.08
2023-02-24T10:53:26.701Z,5.35
2023-02-24T10:58:44.766Z,5.70
2023-02-24T11:04:02.145Z,5.43
2023-02-24T11:09:32.045Z,5.65
2023-02-24T11:14:53.614Z,5.49
2023-02-24T11:20:01.201Z,5.66
2023-02-24T11:25:09.001Z,5.91
2023-02-24T11:30:29.644Z,6.28
2023-02-24T11:35:41.854Z,6.21
2023-02-24T11:40:45.469Z,6.36
2023-02-24T11:45:49.978Z,6.23
2023-02-24T11:50:57.502Z,6.53
2023-02-24T11:56:03.522Z,6.78
2023-02-24T12:01:11.266Z,7.04
2023-02-24T12:06:21.288Z,7.15
2023-02-24T12:11:36.817Z,7.17
2023-02-24T12:16:45.848Z,7.15
2023-02-24T12:21:52.725Z,6.95
2023-02-24T12:27:06.484Z,7.07
2023-02-24T12:32:15.947Z,7.05
2023-02-24T12:37:30.217Z,6.92
2023-02-24T12:42:38.232Z,6.77
2023-02-24T12:47:50.615Z,6.50
2023-02-24T12:53:05.219Z,6.36
2023-02-24T12:58:13.345Z,6.41
2023-02-24T13:03:28.678Z,6.57
2023-02-24T13:08:43.322Z,6.52
2023-02-24T13:13:50.575Z,6.46
2023-02-24T13:18:51.467Z,6.49
2023-02-24T13:23:58.954Z,6.60
2023-02-24T13:29:01.954Z,6.75
2023-02-24T13:34:14.416Z,6.91
2023-02-24T13:39:27.129Z,6.97
2023-02-24T13:44:29.414Z,7.02
2023-02-24T13:49:37.992Z,7.00
2023-02-24T13:55:23.838Z,6.91
2023-02-24T14:00:40.342Z,6.70
2023-02-24T14:05:43.218Z,6.76
2023-02-24T14:10:49.193Z,6.90
2023-02-24T14:15:50.064Z,6.86
2023-02-24T14:20:52.240Z,6.87
2023-02-24T14:25:57.203Z,6.57
2023-02-24T14:31:00.545Z,6.11
2023-02-24T14:36:02.094Z,5.88
2023-02-24T14:41:07.150Z,5.72
2023-02-24T14:46:07.875Z,5.84
2023-02-24T14:51:12.839Z,5.80
2023-02-24T14:56:15.375Z,5.81
2023-02-24T15:01:21.937Z,5.93
2023-02-24T15:06:25.892Z,6.09
2023-02-24T15:11:29.804Z,6.14
2023-02-24T15:16:38.083Z,6.11
2023-02-24T15:21:42.952Z,6.11
2023-02-24T15:26:52.883Z,6.12
2023-02-24T15:31:55.227Z,6.12
2023-02-24T15:37:00.159Z,6.10
2023-02-24T15:42:10.444Z,6.14
2023-02-24T15:47:23.327Z,6.19
2023-02-24T15:52:27.472Z,6.18
2023-02-24T15:57:31.046Z,6.05
2023-02-24T16:02:31.712Z,5.85
2023-02-24T16:07:37.454Z,5.58
2023-02-24T16:12:46.406Z,5.37
2023-02-24T16:17:47.730Z,5.07
2023-02-24T16:22:48.433Z,4.90
2023-02-24T16:27:57.369Z,4.83
2023-02-24T16:32:59.242Z,4.75
2023-02-24T16:38:00.416Z,4.68
2023-02-24T16:43:02.390Z,4.58
2023-02-24T16:48:07.301Z,4.49
2023-02-24T16:53:08.584Z,4.44
2023-02-24T16:58:11.049Z,4.38
2023-02-24T17:03:18.168Z,4.35
2023-02-24T17:08:19.393Z,4.30
2023-02-24T17:13:22.908Z,4.30
2023-02-24T17:18:26.094Z,4.28
2023-02-24T17:23:27.885Z,4.23
2023-02-24T17:28:30.716Z,4.16
2023-02-24T17:33:31.373Z,4.12
2023-02-24T17:38:32.037Z,4.08
2023-02-24T17:43:34.369Z,4.03
2023-02-24T17:48:35.392Z,4.00
2023-02-24T17:53:36.243Z,3.92
2023-02-24T17:58:38.781Z,3.89
2023-02-24T18:03:39.703Z,3.89
2023-02-24T18:08:41.260Z,3.79
2023-02-24T18:13:43.879Z,3.73
2023-02-24T18:18:44.556Z,3.73
2023-02-24T18:23:45.455Z,3.63
2023-02-24T18:28:47.527Z,3.55
2023-02-24T18:33:48.722Z,3.53
2023-02-24T18:38:49.709Z,3.52
2023-02-24T18:43:54.230Z,3.49
2023-02-24T18:48:57.006Z,3.42
2023-02-24T18:54:00.333Z,3.36
2023-02-24T18:59:03.500Z,3.36
2023-02-24T19:04:04.743Z,3.29
2023-02-24T19:09:09.629Z,3.24
2023-02-24T19:14:13.904Z,3.14
2023-02-24T19:19:16.070Z,3.14
2023-02-24T19:24:17.523Z,3.07
2023-02-24T19:29:20.525Z,2.98
2023-02-24T19:34:21.596Z,2.91
2023-02-24T19:39:22.417Z,2.92
2023-02-24T19:44:24.617Z,2.79
2023-02-24T19:49:25.539Z,2.74
2023-02-24T19:54:27.918Z,2.59
2023-02-24T19:59:30.161Z,2.58
2023-02-24T20:04:30.875Z,2.60
2023-02-24T20:09:32.786Z,2.58
2023-02-24T20:14:34.870Z,2.62
2023-02-24T20:19:35.750Z,2.73
2023-02-24T20:24:39.439Z,2.81
2023-02-24T20:29:48.500Z,2.86
2023-02-24T20:34:52.363Z,2.89
2023-02-24T20:39:56.445Z,2.92
2023-02-24T20:45:00.181Z,3.09
2023-02-24T20:50:03.436Z,3.20
2023-02-24T20:55:09.664Z,3.28
2023-02-24T21:00:15.497Z,3.32
2023-02-24T21:05:20.366Z,3.31
2023-02-24T21:10:22.705Z,3.35
2023-02-24T21:15:24.816Z,3.34
2023-02-24T21:20:25.509Z,3.38
2023-02-24T21:25:27.796Z,3.40
2023-02-24T21:30:30.047Z,3.42
2023-02-24T21:35:31.229Z,3.53
2023-02-24T21:40:32.018Z,3.51
2023-02-24T21:45:34.785Z,3.57
2023-02-24T21:50:36.899Z,3.61
2023-02-24T21:55:38.915Z,3.68
2023-02-24T22:00:43.371Z,3.71
2023-02-24T22:05:49.961Z,3.82
2023-02-24T22:10:59.647Z,3.84
2023-02-24T22:16:02.251Z,3.86
2023-02-24T22:21:07.285Z,3.82
2023-02-24T22:26:09.847Z,3.86
2023-02-24T22:31:15.394Z,3.87
2023-02-24T22:36:17.652Z,3.95
2023-02-24T22:41:20.992Z,3.94
2023-02-24T22:46:26.140Z,3.86
2023-02-24T22:51:27.321Z,3.62
2023-02-24T22:56:30.383Z,3.43
2023-02-24T23:01:34.901Z,3.40
2023-02-24T23:06:36.673Z,3.37
2023-02-24T23:11:40.858Z,3.32
2023-02-24T23:16:46.421Z,3.34
2023-02-24T23:21:49.742Z,3.38
2023-02-24T23:26:53.872Z,3.39
2023-02-24T23:31:56.239Z,3.39
2023-02-24T23:36:57.034Z,3.41
2023-02-24T23:41:57.880Z,3.42
2023-02-24T23:47:01.229Z,3.37
2023-02-24T23:52:01.912Z,3.21
2023-02-24T23:57:03.113Z,3.08
